createdAt,value
2018-07-04T00:00:15.609Z,1010.78
2018-07-04T00:01:24.519Z,1010.79
2018-07-04T00:02:33.166Z,1010.77
2018-07-04T00:03:41.807Z,1010.8
2018-07-04T00:04:50.457Z,1010.81
2018-07-04T00:05:59.101Z,1010.83
2018-07-04T00:07:08.012Z,1010.81
2018-07-04T00:08:16.657Z,1010.83
2018-07-04T00:09:25.303Z,1010.84
2018-07-04T00:10:33.947Z,1010.82
2018-07-04T00:11:42.591Z,1010.81
2018-07-04T00:12:51.242Z,1010.8
2018-07-04T00:13:59.888Z,1010.81
2018-07-04T00:15:08.538Z,1010.79
2018-07-04T00:16:17.175Z,1010.78
2018-07-04T00:17:25.844Z,1010.72
2018-07-04T00:18:34.738Z,1010.71
2018-07-04T00:19:43.384Z,1010.7
2018-07-04T00:20:52.026Z,1010.69
2018-07-04T00:22:00.676Z,1010.68
2018-07-04T00:23:09.581Z,1010.69
2018-07-04T00:24:18.229Z,1010.7
2018-07-04T00:25:26.873Z,1010.7
2018-07-04T00:26:35.520Z,1010.72
2018-07-04T00:27:44.166Z,1010.73
2018-07-04T00:28:52.813Z,1010.72
2018-07-04T00:30:01.466Z,1010.66
2018-07-04T00:31:10.634Z,1010.66
2018-07-04T00:32:19.280Z,1010.68
2018-07-04T00:33:27.926Z,1010.65
2018-07-04T00:34:36.576Z,1010.61
2018-07-04T00:35:45.217Z,1010.62
2018-07-04T00:36:53.862Z,1010.61
2018-07-04T00:38:02.774Z,1010.59
2018-07-04T00:39:11.428Z,1010.59
2018-07-04T00:40:20.067Z,1010.58
2018-07-04T00:41:28.715Z,1010.62
2018-07-04T00:42:37.360Z,1010.58
2018-07-04T00:43:46.011Z,1010.59
2018-07-04T00:44:54.655Z,1010.64
2018-07-04T00:46:03.563Z,1010.62
2018-07-04T00:47:12.211Z,1010.59
2018-07-04T00:48:21.127Z,1010.61
2018-07-04T00:49:29.764Z,1010.64
2018-07-04T00:50:38.415Z,1010.63
2018-07-04T00:51:47.055Z,1010.62
2018-07-04T00:52:55.709Z,1010.65
2018-07-04T00:54:04.345Z,1010.68
2018-07-04T00:55:12.996Z,1010.65
2018-07-04T00:56:21.638Z,1010.64
2018-07-04T00:57:30.552Z,1010.66
2018-07-04T00:58:39.189Z,1010.66
2018-07-04T00:59:47.837Z,1010.66
2018-07-04T01:00:56.481Z,1010.65
2018-07-04T01:02:05.133Z,1010.65
2018-07-04T01:03:13.780Z,1010.68
2018-07-04T01:04:22.685Z,1010.69
2018-07-04T01:05:31.327Z,1010.66
2018-07-04T01:06:39.971Z,1010.64
2018-07-04T01:07:48.625Z,1010.67
2018-07-04T01:08:57.264Z,1010.64
2018-07-04T01:10:05.916Z,1010.65
2018-07-04T01:11:14.555Z,1010.64
2018-07-04T01:12:23.208Z,1010.62
2018-07-04T01:13:31.852Z,1010.64
2018-07-04T01:14:40.505Z,1010.62
2018-07-04T01:15:49.141Z,1010.58
2018-07-04T01:16:57.796Z,1010.6
2018-07-04T01:18:06.439Z,1010.58
2018-07-04T01:19:15.085Z,1010.57
2018-07-04T01:20:23.727Z,1010.58
2018-07-04T01:21:32.911Z,1010.56
2018-07-04T01:22:41.820Z,1010.56
2018-07-04T01:23:50.471Z,1010.52
2018-07-04T01:24:59.117Z,1010.5
2018-07-04T01:26:07.752Z,1010.47
2018-07-04T01:27:16.407Z,1010.48
2018-07-04T01:28:25.321Z,1010.43
2018-07-04T01:29:34.231Z,1010.44
2018-07-04T01:30:42.869Z,1010.41
2018-07-04T01:31:51.787Z,1010.39
2018-07-04T01:33:00.688Z,1010.38
2018-07-04T01:34:09.339Z,1010.35
2018-07-04T01:35:17.978Z,1010.34
2018-07-04T01:36:26.627Z,1010.32
2018-07-04T01:37:35.543Z,1010.34
2018-07-04T01:38:44.196Z,1010.31
2018-07-04T01:39:52.841Z,1010.29
2018-07-04T01:41:01.743Z,1010.3
2018-07-04T01:42:10.385Z,1010.29
2018-07-04T01:43:19.029Z,1010.3
2018-07-04T01:44:27.680Z,1010.3
2018-07-04T01:45:36.381Z,1010.26
2018-07-04T01:46:44.966Z,1010.26
2018-07-04T01:47:53.609Z,1010.26
2018-07-04T01:49:02.262Z,1010.27
2018-07-04T01:50:10.908Z,1010.29
2018-07-04T01:51:19.554Z,1010.28
2018-07-04T01:52:28.193Z,1010.28
2018-07-04T01:53:36.842Z,1010.26
2018-07-04T01:54:45.486Z,1010.23
2018-07-04T01:55:54.135Z,1010.2
2018-07-04T01:57:02.774Z,1010.19
2018-07-04T01:58:11.420Z,1010.17
2018-07-04T01:59:20.325Z,1010.19
2018-07-04T02:00:28.971Z,1010.17
2018-07-04T02:01:37.623Z,1010.19
2018-07-04T02:02:46.264Z,1010.21
2018-07-04T02:03:54.916Z,1010.19
2018-07-04T02:05:03.557Z,1010.22
2018-07-04T02:06:12.208Z,1010.24
2018-07-04T02:07:20.846Z,1010.25
2018-07-04T02:08:29.493Z,1010.18
2018-07-04T02:09:38.138Z,1010.18
2018-07-04T02:10:46.790Z,1010.2
2018-07-04T02:11:55.956Z,1010.19
2018-07-04T02:13:04.603Z,1010.16
2018-07-04T02:14:13.244Z,1010.17
2018-07-04T02:15:21.893Z,1010.18
2018-07-04T02:16:30.537Z,1010.13
2018-07-04T02:17:39.185Z,1010.14
2018-07-04T02:18:47.833Z,1010.16
2018-07-04T02:19:56.478Z,1010.14
2018-07-04T02:21:05.128Z,1010.18
2018-07-04T02:22:13.773Z,1010.15
2018-07-04T02:23:22.418Z,1010.14
2018-07-04T02:24:31.057Z,1010.17
2018-07-04T02:25:39.706Z,1010.16
2018-07-04T02:26:48.351Z,1010.17
2018-07-04T02:27:56.999Z,1010.17
2018-07-04T02:29:05.639Z,1010.18
2018-07-04T02:30:14.308Z,1010.2
2018-07-04T02:31:23.471Z,1010.2
2018-07-04T02:32:32.120Z,1010.22
2018-07-04T02:33:40.768Z,1010.2
2018-07-04T02:34:49.681Z,1010.19
2018-07-04T02:35:58.335Z,1010.19
2018-07-04T02:37:06.987Z,1010.17
2018-07-04T02:38:15.641Z,1010.14
2018-07-04T02:39:24.280Z,1010.14
2018-07-04T02:40:32.931Z,1010.1
2018-07-04T02:41:41.577Z,1010.16
2018-07-04T02:42:50.237Z,1010.13
2018-07-04T02:43:59.139Z,1010.13
2018-07-04T02:45:07.842Z,1010.14
2018-07-04T02:46:16.440Z,1010.08
2018-07-04T02:47:25.085Z,1010.12
2018-07-04T02:48:33.742Z,1010.07
2018-07-04T02:49:42.384Z,1010.07
2018-07-04T02:50:51.035Z,1010.04
2018-07-04T02:51:59.952Z,1010.02
2018-07-04T02:53:08.861Z,1009.99
2018-07-04T02:54:17.773Z,1009.98
2018-07-04T02:55:26.416Z,1009.97
2018-07-04T02:56:35.065Z,1009.99
2018-07-04T02:57:43.978Z,1009.97
2018-07-04T02:58:52.891Z,1010.05
2018-07-04T03:00:01.803Z,1009.99
2018-07-04T03:01:10.981Z,1010
2018-07-04T03:02:19.865Z,1010.01
2018-07-04T03:03:28.674Z,1010
2018-07-04T03:04:37.651Z,1009.97
2018-07-04T03:05:46.852Z,1009.94
2018-07-04T03:06:55.855Z,1009.92
2018-07-04T03:08:04.509Z,1009.92
2018-07-04T03:09:13.698Z,1009.92
2018-07-04T03:10:22.875Z,1009.93
2018-07-04T03:11:31.522Z,1009.88
2018-07-04T03:12:40.172Z,1009.89
2018-07-04T03:13:48.821Z,1009.87
2018-07-04T03:14:57.468Z,1009.86
2018-07-04T03:16:06.120Z,1009.85
2018-07-04T03:17:14.769Z,1009.86
2018-07-04T03:18:23.429Z,1009.86
2018-07-04T03:19:32.340Z,1009.9
2018-07-04T03:20:40.996Z,1009.92
2018-07-04T03:21:49.651Z,1009.91
2018-07-04T03:22:58.296Z,1009.88
2018-07-04T03:24:06.939Z,1009.87
2018-07-04T03:25:16.117Z,1009.85
2018-07-04T03:26:24.757Z,1009.84
2018-07-04T03:27:33.410Z,1009.87
2018-07-04T03:28:42.060Z,1009.87
2018-07-04T03:29:50.961Z,1009.88
2018-07-04T03:30:59.610Z,1009.89
2018-07-04T03:32:08.784Z,1009.87
2018-07-04T03:33:17.435Z,1009.87
2018-07-04T03:34:26.071Z,1009.83
2018-07-04T03:35:34.981Z,1009.88
2018-07-04T03:36:43.636Z,1009.85
2018-07-04T03:37:52.282Z,1009.89
2018-07-04T03:39:01.185Z,1009.88
2018-07-04T03:40:09.835Z,1009.9
2018-07-04T03:41:18.472Z,1009.86
2018-07-04T03:42:27.385Z,1009.91
2018-07-04T03:43:36.279Z,1009.9
2018-07-04T03:44:44.926Z,1009.94
2018-07-04T03:45:53.828Z,1009.93
2018-07-04T03:47:02.747Z,1009.92
2018-07-04T03:48:11.653Z,1009.93
2018-07-04T03:49:20.293Z,1009.9
2018-07-04T03:50:28.935Z,1009.89
2018-07-04T03:51:37.578Z,1009.92
2018-07-04T03:52:46.229Z,1009.86
2018-07-04T03:53:55.132Z,1009.9
2018-07-04T03:55:03.804Z,1009.85
2018-07-04T03:56:12.446Z,1009.87
2018-07-04T03:57:21.101Z,1009.86
2018-07-04T03:58:29.742Z,1009.83
2018-07-04T03:59:38.396Z,1009.82
2018-07-04T04:00:47.031Z,1009.83
2018-07-04T04:01:55.685Z,1009.81
2018-07-04T04:03:04.328Z,1009.8
2018-07-04T04:04:12.972Z,1009.83
2018-07-04T04:05:21.608Z,1009.84
2018-07-04T04:06:30.258Z,1009.83
2018-07-04T04:07:38.914Z,1009.89
2018-07-04T04:08:47.558Z,1009.88
2018-07-04T04:09:56.203Z,1009.95
2018-07-04T04:11:04.843Z,1009.94
2018-07-04T04:12:13.491Z,1009.99
2018-07-04T04:13:22.132Z,1010
2018-07-04T04:14:31.045Z,1010.03
2018-07-04T04:15:39.681Z,1010.01
2018-07-04T04:16:48.333Z,1009.99
2018-07-04T04:17:56.978Z,1009.94
2018-07-04T04:19:05.637Z,1009.87
2018-07-04T04:20:14.274Z,1009.85
2018-07-04T04:21:22.918Z,1009.9
2018-07-04T04:22:31.822Z,1009.87
2018-07-04T04:23:40.477Z,1009.88
2018-07-04T04:24:49.382Z,1009.9
2018-07-04T04:25:58.287Z,1009.89
2018-07-04T04:27:06.997Z,1009.91
2018-07-04T04:28:15.572Z,1009.89
2018-07-04T04:29:24.228Z,1009.91
2018-07-04T04:30:32.868Z,1009.92
2018-07-04T04:31:41.521Z,1009.88
2018-07-04T04:32:50.152Z,1009.92
2018-07-04T04:33:58.896Z,1009.96
2018-07-04T04:35:07.446Z,1010.02
2018-07-04T04:36:16.135Z,1009.97
2018-07-04T04:37:24.733Z,1009.97
2018-07-04T04:38:33.386Z,1009.93
2018-07-04T04:39:42.030Z,1009.93
2018-07-04T04:40:50.943Z,1009.91
2018-07-04T04:41:59.583Z,1009.9
2018-07-04T04:43:08.492Z,1009.93
2018-07-04T04:44:17.136Z,1009.89
2018-07-04T04:45:26.047Z,1009.89
2018-07-04T04:46:34.694Z,1009.87
2018-07-04T04:47:43.335Z,1009.89
2018-07-04T04:48:51.984Z,1009.88
2018-07-04T04:50:00.889Z,1009.88
2018-07-04T04:51:09.540Z,1009.93
2018-07-04T04:52:18.185Z,1009.86
2018-07-04T04:53:26.827Z,1009.88
2018-07-04T04:54:35.489Z,1009.88
2018-07-04T04:55:44.139Z,1009.86
2018-07-04T04:56:52.790Z,1009.84
2018-07-04T04:58:01.689Z,1009.84
2018-07-04T04:59:10.334Z,1009.85
2018-07-04T05:00:18.983Z,1009.84
2018-07-04T05:01:27.637Z,1009.84
2018-07-04T05:02:36.281Z,1009.83
2018-07-04T05:03:44.924Z,1009.82
2018-07-04T05:04:53.566Z,1009.77
2018-07-04T05:06:02.219Z,1009.81
2018-07-04T05:07:10.865Z,1009.79
2018-07-04T05:08:19.510Z,1009.78
2018-07-04T05:09:28.151Z,1009.8
2018-07-04T05:10:36.804Z,1009.81
2018-07-04T05:11:45.448Z,1009.83
2018-07-04T05:12:54.088Z,1009.82
2018-07-04T05:14:02.728Z,1009.82
2018-07-04T05:15:11.378Z,1009.78
2018-07-04T05:16:20.027Z,1009.73
2018-07-04T05:17:28.676Z,1009.73
2018-07-04T05:18:37.316Z,1009.74
2018-07-04T05:19:45.988Z,1009.76
2018-07-04T05:20:54.614Z,1009.8
2018-07-04T05:22:03.259Z,1009.77
2018-07-04T05:23:11.912Z,1009.82
2018-07-04T05:24:20.551Z,1009.82
2018-07-04T05:25:29.197Z,1009.75
2018-07-04T05:26:38.103Z,1009.76
2018-07-04T05:27:46.757Z,1009.75
2018-07-04T05:28:55.400Z,1009.79
2018-07-04T05:30:04.047Z,1009.81
2018-07-04T05:31:12.693Z,1009.83
2018-07-04T05:32:21.345Z,1009.82
2018-07-04T05:33:29.994Z,1009.82
2018-07-04T05:34:38.635Z,1009.81
2018-07-04T05:35:47.544Z,1009.79
2018-07-04T05:36:56.193Z,1009.78
2018-07-04T05:38:04.838Z,1009.7
2018-07-04T05:39:13.481Z,1009.76
2018-07-04T05:40:22.122Z,1009.73
2018-07-04T05:41:31.033Z,1009.72
2018-07-04T05:42:39.686Z,1009.74
2018-07-04T05:43:48.596Z,1009.73
2018-07-04T05:44:57.254Z,1009.73
2018-07-04T05:46:06.181Z,1009.81
2018-07-04T05:47:15.102Z,1009.82
2018-07-04T05:48:23.746Z,1009.86
2018-07-04T05:49:32.395Z,1009.89
2018-07-04T05:50:41.034Z,1009.88
2018-07-04T05:51:49.688Z,1009.94
2018-07-04T05:52:58.331Z,1009.85
2018-07-04T05:54:07.242Z,1009.87
2018-07-04T05:55:15.881Z,1009.86
2018-07-04T05:56:24.530Z,1009.83
2018-07-04T05:57:33.181Z,1009.83
2018-07-04T05:58:41.832Z,1009.78
2018-07-04T05:59:50.743Z,1009.83
2018-07-04T06:00:59.381Z,1009.85
2018-07-04T06:02:08.027Z,1009.86
2018-07-04T06:03:16.671Z,1009.87
2018-07-04T06:04:25.327Z,1009.87
2018-07-04T06:05:33.965Z,1009.85
2018-07-04T06:06:42.881Z,1009.84
2018-07-04T06:07:51.798Z,1009.85
2018-07-04T06:09:00.726Z,1009.83
2018-07-04T06:10:09.677Z,1009.84
2018-07-04T06:11:18.326Z,1009.87
2018-07-04T06:12:26.969Z,1009.84
2018-07-04T06:13:35.628Z,1009.84
2018-07-04T06:14:44.274Z,1009.81
2018-07-04T06:15:52.918Z,1009.81
2018-07-04T06:17:01.602Z,1009.83
2018-07-04T06:18:10.209Z,1009.82
2018-07-04T06:19:18.870Z,1009.83
2018-07-04T06:20:27.508Z,1009.86
2018-07-04T06:21:36.160Z,1009.85
2018-07-04T06:22:44.797Z,1009.87
2018-07-04T06:23:53.455Z,1009.87
2018-07-04T06:25:02.100Z,1009.87
2018-07-04T06:26:10.751Z,1009.87
2018-07-04T06:27:19.402Z,1009.89
2018-07-04T06:28:28.327Z,1009.9
2018-07-04T06:29:36.970Z,1009.87
2018-07-04T06:30:45.887Z,1009.88
2018-07-04T06:31:54.530Z,1009.88
2018-07-04T06:33:03.445Z,1009.84
2018-07-04T06:34:12.099Z,1009.88
2018-07-04T06:35:20.748Z,1009.79
2018-07-04T06:36:29.401Z,1009.77
2018-07-04T06:37:38.042Z,1009.76
2018-07-04T06:38:46.693Z,1009.74
2018-07-04T06:39:55.347Z,1009.74
2018-07-04T06:41:03.987Z,1009.73
2018-07-04T06:42:12.645Z,1009.71
2018-07-04T06:43:21.561Z,1009.71
2018-07-04T06:44:30.215Z,1009.7
2018-07-04T06:45:38.856Z,1009.75
2018-07-04T06:46:47.513Z,1009.73
2018-07-04T06:47:56.172Z,1009.77
2018-07-04T06:49:04.854Z,1009.75
2018-07-04T06:50:13.452Z,1009.73
2018-07-04T06:51:22.103Z,1009.74
2018-07-04T06:52:30.756Z,1009.75
2018-07-04T06:53:39.407Z,1009.73
2018-07-04T06:54:48.063Z,1009.75
2018-07-04T06:55:56.705Z,1009.74
2018-07-04T06:57:05.631Z,1009.75
2018-07-04T06:58:14.276Z,1009.72
2018-07-04T06:59:22.934Z,1009.8
2018-07-04T07:00:32.112Z,1009.74
2018-07-04T07:01:40.767Z,1009.75
2018-07-04T07:02:49.411Z,1009.77
2018-07-04T07:03:58.072Z,1009.78
2018-07-04T07:05:06.710Z,1009.74
2018-07-04T07:06:15.364Z,1009.73
2018-07-04T07:07:24.011Z,1009.77
2018-07-04T07:08:32.724Z,1009.7
2018-07-04T07:09:41.687Z,1009.75
2018-07-04T07:10:50.592Z,1009.73
2018-07-04T07:11:59.236Z,1009.73
2018-07-04T07:13:07.886Z,1009.73
2018-07-04T07:14:16.804Z,1009.79
2018-07-04T07:15:25.449Z,1009.74
2018-07-04T07:16:34.098Z,1009.77
2018-07-04T07:17:42.736Z,1009.77
2018-07-04T07:18:51.396Z,1009.76
2018-07-04T07:20:00.045Z,1009.77
2018-07-04T07:21:08.983Z,1009.77
2018-07-04T07:22:17.955Z,1009.77
2018-07-04T07:23:26.876Z,1009.75
2018-07-04T07:24:35.523Z,1009.72
2018-07-04T07:25:44.175Z,1009.71
2018-07-04T07:26:52.815Z,1009.67
2018-07-04T07:28:01.744Z,1009.65
2018-07-04T07:29:10.401Z,1009.64
2018-07-04T07:30:19.052Z,1009.61
2018-07-04T07:31:27.968Z,1009.6
2018-07-04T07:32:36.608Z,1009.6
2018-07-04T07:33:45.260Z,1009.56
2018-07-04T07:34:54.207Z,1009.57
2018-07-04T07:36:02.864Z,1009.59
2018-07-04T07:37:11.508Z,1009.6
2018-07-04T07:38:20.159Z,1009.57
2018-07-04T07:39:28.803Z,1009.59
2018-07-04T07:40:37.457Z,1009.6
2018-07-04T07:41:46.099Z,1009.58
2018-07-04T07:42:55.025Z,1009.59
2018-07-04T07:44:03.672Z,1009.62
2018-07-04T07:45:12.329Z,1009.64
2018-07-04T07:46:20.978Z,1009.6
2018-07-04T07:47:29.629Z,1009.57
2018-07-04T07:48:38.300Z,1009.56
2018-07-04T07:49:46.930Z,1009.59
2018-07-04T07:50:55.583Z,1009.64
2018-07-04T07:52:04.508Z,1009.63
2018-07-04T07:53:13.157Z,1009.61
2018-07-04T07:54:21.828Z,1009.61
2018-07-04T07:55:30.456Z,1009.65
2018-07-04T07:56:39.108Z,1009.64
2018-07-04T07:57:47.758Z,1009.6
2018-07-04T07:58:56.675Z,1009.63
2018-07-04T08:00:05.331Z,1009.57
2018-07-04T08:01:13.981Z,1009.59
2018-07-04T08:02:22.638Z,1009.59
2018-07-04T08:03:31.276Z,1009.53
2018-07-04T08:04:39.932Z,1009.53
2018-07-04T08:05:48.587Z,1009.51
2018-07-04T08:06:57.234Z,1009.48
2018-07-04T08:08:05.928Z,1009.48
2018-07-04T08:09:14.701Z,1009.46
2018-07-04T08:10:23.352Z,1009.47
2018-07-04T08:11:32.004Z,1009.47
2018-07-04T08:12:41.014Z,1009.48
2018-07-04T08:13:50.106Z,1009.46
2018-07-04T08:14:58.795Z,1009.41
2018-07-04T08:16:07.711Z,1009.41
2018-07-04T08:17:16.367Z,1009.41
2018-07-04T08:18:25.013Z,1009.43
2018-07-04T08:19:33.669Z,1009.4
2018-07-04T08:20:42.321Z,1009.39
2018-07-04T08:21:50.976Z,1009.41
2018-07-04T08:22:59.629Z,1009.41
2018-07-04T08:24:08.542Z,1009.38
2018-07-04T08:25:17.198Z,1009.37
2018-07-04T08:26:25.943Z,1009.35
2018-07-04T08:27:34.496Z,1009.38
2018-07-04T08:28:43.153Z,1009.33
2018-07-04T08:29:51.800Z,1009.35
2018-07-04T08:31:00.446Z,1009.35
2018-07-04T08:32:09.103Z,1009.39
2018-07-04T08:33:17.754Z,1009.39
2018-07-04T08:34:26.407Z,1009.39
2018-07-04T08:35:35.056Z,1009.4
2018-07-04T08:36:43.710Z,1009.39
2018-07-04T08:37:52.623Z,1009.41
2018-07-04T08:39:01.408Z,1009.43
2018-07-04T08:40:10.212Z,1009.4
2018-07-04T08:41:18.867Z,1009.4
2018-07-04T08:42:27.518Z,1009.41
2018-07-04T08:43:36.174Z,1009.48
2018-07-04T08:44:44.867Z,1009.45
2018-07-04T08:45:53.475Z,1009.45
2018-07-04T08:47:02.127Z,1009.43
2018-07-04T08:48:10.778Z,1009.47
2018-07-04T08:49:19.439Z,1009.38
2018-07-04T08:50:28.085Z,1009.38
2018-07-04T08:51:36.736Z,1009.35
2018-07-04T08:52:45.396Z,1009.33
2018-07-04T08:53:54.351Z,1009.41
2018-07-04T08:55:03.262Z,1009.4
2018-07-04T08:56:11.924Z,1009.38
2018-07-04T08:57:21.102Z,1009.4
2018-07-04T08:58:29.779Z,1009.4
2018-07-04T08:59:38.408Z,1009.38
2018-07-04T09:00:47.060Z,1009.41
2018-07-04T09:01:55.708Z,1009.41
2018-07-04T09:03:04.357Z,1009.39
2018-07-04T09:04:13.019Z,1009.38
2018-07-04T09:05:21.670Z,1009.4
2018-07-04T09:06:30.322Z,1009.42
2018-07-04T09:07:38.969Z,1009.43
2018-07-04T09:08:47.630Z,1009.38
2018-07-04T09:09:56.279Z,1009.41
2018-07-04T09:11:04.932Z,1009.43
2018-07-04T09:12:13.581Z,1009.45
2018-07-04T09:13:22.245Z,1009.44
2018-07-04T09:14:30.896Z,1009.45
2018-07-04T09:15:39.552Z,1009.46
2018-07-04T09:16:48.199Z,1009.42
2018-07-04T09:17:56.852Z,1009.37
2018-07-04T09:19:05.508Z,1009.38
2018-07-04T09:20:14.161Z,1009.41
2018-07-04T09:21:22.816Z,1009.4
2018-07-04T09:22:31.464Z,1009.4
2018-07-04T09:23:40.116Z,1009.39
2018-07-04T09:24:48.767Z,1009.4
2018-07-04T09:25:57.425Z,1009.39
2018-07-04T09:27:06.334Z,1009.38
2018-07-04T09:28:14.981Z,1009.41
2018-07-04T09:29:23.631Z,1009.44
2018-07-04T09:30:32.288Z,1009.4
2018-07-04T09:31:40.937Z,1009.42
2018-07-04T09:32:50.119Z,1009.41
2018-07-04T09:33:58.765Z,1009.42
2018-07-04T09:35:07.426Z,1009.43
2018-07-04T09:36:16.079Z,1009.4
2018-07-04T09:37:24.729Z,1009.42
2018-07-04T09:38:33.380Z,1009.43
2018-07-04T09:39:42.032Z,1009.38
2018-07-04T09:40:50.697Z,1009.42
2018-07-04T09:41:59.340Z,1009.4
2018-07-04T09:43:07.998Z,1009.36
2018-07-04T09:44:16.641Z,1009.4
2018-07-04T09:45:25.297Z,1009.37
2018-07-04T09:46:33.944Z,1009.32
2018-07-04T09:47:42.605Z,1009.35
2018-07-04T09:48:51.243Z,1009.4
2018-07-04T09:50:00.169Z,1009.37
2018-07-04T09:51:08.825Z,1009.37
2018-07-04T09:52:17.739Z,1009.3
2018-07-04T09:53:26.383Z,1009.29
2018-07-04T09:54:35.303Z,1009.27
2018-07-04T09:55:43.961Z,1009.27
2018-07-04T09:56:52.615Z,1009.27
2018-07-04T09:58:01.271Z,1009.27
2018-07-04T09:59:09.916Z,1009.28
2018-07-04T10:00:18.584Z,1009.28
2018-07-04T10:01:27.224Z,1009.24
2018-07-04T10:02:35.885Z,1009.27
2018-07-04T10:03:44.530Z,1009.24
2018-07-04T10:04:53.188Z,1009.23
2018-07-04T10:06:01.836Z,1009.24
2018-07-04T10:07:10.765Z,1009.25
2018-07-04T10:08:19.407Z,1009.23
2018-07-04T10:09:28.061Z,1009.26
2018-07-04T10:10:37.547Z,1009.27
2018-07-04T10:11:46.212Z,1009.26
2018-07-04T10:12:54.862Z,1009.25
2018-07-04T10:14:03.512Z,1009.26
2018-07-04T10:15:12.218Z,1009.27
2018-07-04T10:16:21.162Z,1009.29
2018-07-04T10:17:30.103Z,1009.28
2018-07-04T10:18:38.938Z,1009.25
2018-07-04T10:19:47.630Z,1009.26
2018-07-04T10:20:56.286Z,1009.22
2018-07-04T10:22:05.213Z,1009.22
2018-07-04T10:23:14.057Z,1009.23
2018-07-04T10:24:22.717Z,1009.2
2018-07-04T10:25:31.421Z,1009.2
2018-07-04T10:26:40.082Z,1009.22
2018-07-04T10:27:48.733Z,1009.16
2018-07-04T10:28:57.389Z,1009.18
2018-07-04T10:30:06.031Z,1009.17
2018-07-04T10:31:14.687Z,1009.18
2018-07-04T10:32:23.346Z,1009.14
2018-07-04T10:33:32.068Z,1009.14
2018-07-04T10:34:40.752Z,1009.12
2018-07-04T10:35:49.415Z,1009.14
2018-07-04T10:36:58.465Z,1009.13
2018-07-04T10:38:07.146Z,1009.14
2018-07-04T10:39:15.854Z,1009.16
2018-07-04T10:40:24.517Z,1009.14
2018-07-04T10:41:33.167Z,1009.13
2018-07-04T10:42:41.826Z,1009.16
2018-07-04T10:43:50.472Z,1009.17
2018-07-04T10:44:59.132Z,1009.17
2018-07-04T10:46:07.784Z,1009.15
2018-07-04T10:47:16.440Z,1009.13
2018-07-04T10:48:25.084Z,1009.13
2018-07-04T10:49:33.739Z,1009.12
2018-07-04T10:50:42.396Z,1009.14
2018-07-04T10:51:51.057Z,1009.13
2018-07-04T10:52:59.712Z,1009.07
2018-07-04T10:54:08.358Z,1009.07
2018-07-04T10:55:17.016Z,1009.07
2018-07-04T10:56:25.666Z,1009.05
2018-07-04T10:57:34.331Z,1009.07
2018-07-04T10:58:43.235Z,1009.06
2018-07-04T10:59:52.159Z,1008.99
2018-07-04T11:01:00.808Z,1009.04
2018-07-04T11:02:09.472Z,1009.01
2018-07-04T11:03:18.119Z,1009.03
2018-07-04T11:04:26.787Z,1008.99
2018-07-04T11:05:35.439Z,1009.03
2018-07-04T11:06:44.099Z,1009.02
2018-07-04T11:07:52.853Z,1009.02
2018-07-04T11:09:01.400Z,1008.97
2018-07-04T11:10:10.318Z,1008.97
2018-07-04T11:11:18.998Z,1008.96
2018-07-04T11:12:27.639Z,1008.93
2018-07-04T11:13:36.287Z,1008.93
2018-07-04T11:14:44.944Z,1008.88
2018-07-04T11:15:53.589Z,1008.9
2018-07-04T11:17:02.296Z,1008.92
2018-07-04T11:18:10.905Z,1008.83
2018-07-04T11:19:19.559Z,1008.84
2018-07-04T11:20:28.209Z,1008.82
2018-07-04T11:21:36.874Z,1008.78
2018-07-04T11:22:45.789Z,1008.77
2018-07-04T11:23:54.452Z,1008.74
2018-07-04T11:25:03.097Z,1008.71
2018-07-04T11:26:12.278Z,1008.7
2018-07-04T11:27:20.937Z,1008.69
2018-07-04T11:28:29.610Z,1008.69
2018-07-04T11:29:38.592Z,1008.69
2018-07-04T11:30:47.237Z,1008.65
2018-07-04T11:31:55.892Z,1008.64
2018-07-04T11:33:04.545Z,1008.64
2018-07-04T11:34:13.205Z,1008.63
2018-07-04T11:35:21.853Z,1008.6
2018-07-04T11:36:30.508Z,1008.63
2018-07-04T11:37:39.159Z,1008.63
2018-07-04T11:38:47.816Z,1008.6
2018-07-04T11:39:56.731Z,1008.61
2018-07-04T11:41:05.647Z,1008.6
2018-07-04T11:42:14.301Z,1008.61
2018-07-04T11:43:22.960Z,1008.62
2018-07-04T11:44:31.613Z,1008.6
2018-07-04T11:45:40.814Z,1008.59
2018-07-04T11:46:49.466Z,1008.54
2018-07-04T11:47:58.117Z,1008.6
2018-07-04T11:49:06.777Z,1008.58
2018-07-04T11:50:15.434Z,1008.56
2018-07-04T11:51:24.091Z,1008.59
2018-07-04T11:52:32.742Z,1008.56
2018-07-04T11:53:41.405Z,1008.52
2018-07-04T11:54:50.335Z,1008.53
2018-07-04T11:55:58.990Z,1008.57
2018-07-04T11:57:07.686Z,1008.51
2018-07-04T11:58:16.301Z,1008.5
2018-07-04T11:59:24.957Z,1008.46
2018-07-04T12:00:33.612Z,1008.48
2018-07-04T12:01:42.313Z,1008.41
2018-07-04T12:02:50.921Z,1008.36
2018-07-04T12:03:59.576Z,1008.37
2018-07-04T12:05:08.234Z,1008.37
2018-07-04T12:06:17.173Z,1008.37
2018-07-04T12:07:25.826Z,1008.4
2018-07-04T12:08:34.478Z,1008.39
2018-07-04T12:09:43.395Z,1008.4
2018-07-04T12:10:52.072Z,1008.38
2018-07-04T12:12:00.713Z,1008.4
2018-07-04T12:13:09.369Z,1008.36
2018-07-04T12:14:18.025Z,1008.35
2018-07-04T12:15:26.954Z,1008.35
2018-07-04T12:16:35.608Z,1008.35
2018-07-04T12:17:44.793Z,1008.4
2018-07-04T12:18:53.445Z,1008.38
2018-07-04T12:20:02.107Z,1008.38
2018-07-04T12:21:10.762Z,1008.41
2018-07-04T12:22:19.423Z,1008.34
2018-07-04T12:23:28.078Z,1008.34
2018-07-04T12:24:36.728Z,1008.34
2018-07-04T12:25:45.390Z,1008.34
2018-07-04T12:26:54.078Z,1008.33
2018-07-04T12:28:02.705Z,1008.32
2018-07-04T12:29:11.626Z,1008.28
2018-07-04T12:30:20.801Z,1008.28
2018-07-04T12:31:29.462Z,1008.25
2018-07-04T12:32:38.115Z,1008.27
2018-07-04T12:33:46.782Z,1008.26
2018-07-04T12:34:55.437Z,1008.28
2018-07-04T12:36:04.089Z,1008.3
2018-07-04T12:37:13.004Z,1008.29
2018-07-04T12:38:21.671Z,1008.31
2018-07-04T12:39:30.326Z,1008.31
2018-07-04T12:40:39.052Z,1008.27
2018-07-04T12:41:47.634Z,1008.29
2018-07-04T12:42:56.550Z,1008.3
2018-07-04T12:44:05.490Z,1008.3
2018-07-04T12:45:14.139Z,1008.32
2018-07-04T12:46:22.799Z,1008.3
2018-07-04T12:47:31.451Z,1008.3
2018-07-04T12:48:40.380Z,1008.29
2018-07-04T12:49:49.301Z,1008.34
2018-07-04T12:50:58.254Z,1008.3
2018-07-04T12:52:07.164Z,1008.32
2018-07-04T12:53:15.827Z,1008.31
2018-07-04T12:54:24.509Z,1008.29
2018-07-04T12:55:33.800Z,1008.27
2018-07-04T12:56:42.449Z,1008.3
2018-07-04T12:57:51.111Z,1008.29
2018-07-04T12:58:59.771Z,1008.23
2018-07-04T13:00:08.695Z,1008.22
2018-07-04T13:01:17.354Z,1008.17
2018-07-04T13:02:25.993Z,1008.2
2018-07-04T13:03:34.670Z,1008.21
2018-07-04T13:04:43.324Z,1008.22
2018-07-04T13:05:51.990Z,1008.21
2018-07-04T13:07:00.652Z,1008.26
2018-07-04T13:08:09.305Z,1008.19
2018-07-04T13:09:17.963Z,1008.2
2018-07-04T13:10:26.774Z,1008.26
2018-07-04T13:11:35.785Z,1008.22
2018-07-04T13:12:44.445Z,1008.21
2018-07-04T13:13:53.169Z,1008.25
2018-07-04T13:15:02.050Z,1008.23
2018-07-04T13:16:10.756Z,1008.22
2018-07-04T13:17:19.361Z,1008.25
2018-07-04T13:18:28.280Z,1008.23
2018-07-04T13:19:37.010Z,1008.24
2018-07-04T13:20:45.599Z,1008.25
2018-07-04T13:21:54.271Z,1008.25
2018-07-04T13:23:02.934Z,1008.16
2018-07-04T13:24:11.578Z,1008.2
2018-07-04T13:25:20.513Z,1008.18
2018-07-04T13:26:29.166Z,1008.2
2018-07-04T13:27:37.828Z,1008.2
2018-07-04T13:28:46.478Z,1008.17
2018-07-04T13:29:55.410Z,1008.18
2018-07-04T13:31:04.063Z,1008.12
2018-07-04T13:32:12.805Z,1008.16
2018-07-04T13:33:21.996Z,1008.09
2018-07-04T13:34:30.654Z,1008.04
2018-07-04T13:35:39.393Z,1008.04
2018-07-04T13:36:48.055Z,1008.02
2018-07-04T13:37:56.712Z,1008.05
2018-07-04T13:39:05.367Z,1008.05
2018-07-04T13:40:14.025Z,1008.03
2018-07-04T13:41:22.684Z,1008
2018-07-04T13:42:31.339Z,1007.98
2018-07-04T13:43:39.991Z,1007.98
2018-07-04T13:44:48.647Z,1007.94
2018-07-04T13:45:57.306Z,1007.95
2018-07-04T13:47:05.969Z,1007.9
2018-07-04T13:48:14.884Z,1007.93
2018-07-04T13:49:23.593Z,1007.95
2018-07-04T13:50:32.192Z,1007.87
2018-07-04T13:51:41.123Z,1007.93
2018-07-04T13:52:49.781Z,1007.95
2018-07-04T13:53:58.437Z,1007.95